sensor_id;sensor_type;location;lat;lon;timestamp;temperature;humidity
65179;DHT22;51849;47.476;8.084;2022-09-09T00:04:36;13.20;82.70
65179;DHT22;51849;47.476;8.084;2022-09-09T00:12:50;13.20;82.80
65179;DHT22;51849;47.476;8.084;2022-09-09T00:15:31;13.20;82.90
65179;DHT22;51849;47.476;8.084;2022-09-09T00:23:48;13.30;83.30
65179;DHT22;51849;47.476;8.084;2022-09-09T00:29:24;13.30;83.80
65179;DHT22;51849;47.476;8.084;2022-09-09T00:31:59;13.30;84.30
65179;DHT22;51849;47.476;8.084;2022-09-09T00:37:37;13.30;84.80
65179;DHT22;51849;47.476;8.084;2022-09-09T00:40:41;13.30;85.10
65179;DHT22;51849;47.476;8.084;2022-09-09T00:43:46;13.30;85.00
65179;DHT22;51849;47.476;8.084;2022-09-09T00:46:05;13.40;85.00
65179;DHT22;51849;47.476;8.084;2022-09-09T00:54:51;13.40;84.20
65179;DHT22;51849;47.476;8.084;2022-09-09T00:57:40;13.50;84.50
65179;DHT22;51849;47.476;8.084;2022-09-09T01:05:44;13.60;84.90
65179;DHT22;51849;47.476;8.084;2022-09-09T01:11:22;13.70;85.80
65179;DHT22;51849;47.476;8.084;2022-09-09T01:28:10;13.90;86.00
65179;DHT22;51849;47.476;8.084;2022-09-09T01:30:44;13.90;86.00
65179;DHT22;51849;47.476;8.084;2022-09-09T01:33:19;14.00;86.30
65179;DHT22;51849;47.476;8.084;2022-09-09T01:38:25;14.00;86.80
65179;DHT22;51849;47.476;8.084;2022-09-09T01:40:53;14.00;87.20
65179;DHT22;51849;47.476;8.084;2022-09-09T01:43:38;14.00;87.30
65179;DHT22;51849;47.476;8.084;2022-09-09T01:46:04;14.00;87.50
65179;DHT22;51849;47.476;8.084;2022-09-09T01:48:32;14.00;87.80
65179;DHT22;51849;47.476;8.084;2022-09-09T01:51:00;14.00;87.70
65179;DHT22;51849;47.476;8.084;2022-09-09T01:53:28;14.00;87.60
65179;DHT22;51849;47.476;8.084;2022-09-09T01:58:34;14.00;87.90
65179;DHT22;51849;47.476;8.084;2022-09-09T02:01:22;14.10;87.90
65179;DHT22;51849;47.476;8.084;2022-09-09T02:04:02;14.10;88.10
65179;DHT22;51849;47.476;8.084;2022-09-09T02:06:35;14.10;88.20
65179;DHT22;51849;47.476;8.084;2022-09-09T02:09:10;14.10;88.40
65179;DHT22;51849;47.476;8.084;2022-09-09T02:11:45;14.00;88.50
65179;DHT22;51849;47.476;8.084;2022-09-09T02:14:21;14.00;88.70
65179;DHT22;51849;47.476;8.084;2022-09-09T02:16:51;14.00;88.90
65179;DHT22;51849;47.476;8.084;2022-09-09T02:19:22;14.10;88.90
65179;DHT22;51849;47.476;8.084;2022-09-09T02:21:56;14.10;89.30
65179;DHT22;51849;47.476;8.084;2022-09-09T02:24:24;14.00;89.60
65179;DHT22;51849;47.476;8.084;2022-09-09T02:26:58;14.00;89.90
65179;DHT22;51849;47.476;8.084;2022-09-09T02:29:29;14.00;90.00
65179;DHT22;51849;47.476;8.084;2022-09-09T02:32:07;14.00;90.20
65179;DHT22;51849;47.476;8.084;2022-09-09T02:34:44;14.10;90.50
65179;DHT22;51849;47.476;8.084;2022-09-09T02:37:13;14.10;90.80
65179;DHT22;51849;47.476;8.084;2022-09-09T02:39:44;14.10;90.90
65179;DHT22;51849;47.476;8.084;2022-09-09T02:42:13;14.10;91.00
65179;DHT22;51849;47.476;8.084;2022-09-09T02:44:40;14.10;91.00
65179;DHT22;51849;47.476;8.084;2022-09-09T02:47:13;14.10;90.90
65179;DHT22;51849;47.476;8.084;2022-09-09T02:52:15;14.10;91.10
65179;DHT22;51849;47.476;8.084;2022-09-09T02:54:46;14.10;91.30
65179;DHT22;51849;47.476;8.084;2022-09-09T02:57:28;14.10;91.70
65179;DHT22;51849;47.476;8.084;2022-09-09T02:59:57;14.10;91.70
65179;DHT22;51849;47.476;8.084;2022-09-09T03:02:24;14.20;92.00
65179;DHT22;51849;47.476;8.084;2022-09-09T03:04:58;14.10;91.70
65179;DHT22;51849;47.476;8.084;2022-09-09T03:07:23;14.20;91.60
65179;DHT22;51849;47.476;8.084;2022-09-09T03:09:52;14.10;91.50
65179;DHT22;51849;47.476;8.084;2022-09-09T03:12:21;14.10;91.90
65179;DHT22;51849;47.476;8.084;2022-09-09T03:14:46;14.00;91.90
65179;DHT22;51849;47.476;8.084;2022-09-09T03:17:18;14.00;92.40
65179;DHT22;51849;47.476;8.084;2022-09-09T03:19:44;14.00;92.70
65179;DHT22;51849;47.476;8.084;2022-09-09T03:22:10;14.00;92.90
65179;DHT22;51849;47.476;8.084;2022-09-09T03:24:39;14.10;92.80
65179;DHT22;51849;47.476;8.084;2022-09-09T03:27:10;14.10;92.50
65179;DHT22;51849;47.476;8.084;2022-09-09T03:29:38;14.10;92.30
65179;DHT22;51849;47.476;8.084;2022-09-09T03:32:04;14.10;92.10
65179;DHT22;51849;47.476;8.084;2022-09-09T03:34:30;14.10;92.00
65179;DHT22;51849;47.476;8.084;2022-09-09T03:36:56;14.10;92.30
65179;DHT22;51849;47.476;8.084;2022-09-09T03:39:24;14.10;92.40
65179;DHT22;51849;47.476;8.084;2022-09-09T03:41:53;14.10;92.10
65179;DHT22;51849;47.476;8.084;2022-09-09T03:44:22;14.20;92.30
65179;DHT22;51849;47.476;8.084;2022-09-09T03:46:47;14.30;91.90
65179;DHT22;51849;47.476;8.084;2022-09-09T03:49:13;14.20;91.90
65179;DHT22;51849;47.476;8.084;2022-09-09T03:51:39;14.10;92.00
65179;DHT22;51849;47.476;8.084;2022-09-09T03:54:08;14.10;92.30
65179;DHT22;51849;47.476;8.084;2022-09-09T03:56:35;14.20;92.60
65179;DHT22;51849;47.476;8.084;2022-09-09T03:59:02;14.20;92.50
65179;DHT22;51849;47.476;8.084;2022-09-09T04:01:29;14.20;92.40
65179;DHT22;51849;47.476;8.084;2022-09-09T04:03:58;14.20;92.20
65179;DHT22;51849;47.476;8.084;2022-09-09T04:06:24;14.20;92.00
65179;DHT22;51849;47.476;8.084;2022-09-09T04:08:49;14.20;92.20
65179;DHT22;51849;47.476;8.084;2022-09-09T04:11:17;14.10;92.00
65179;DHT22;51849;47.476;8.084;2022-09-09T04:13:43;14.10;92.20
65179;DHT22;51849;47.476;8.084;2022-09-09T04:16:10;14.10;92.40
65179;DHT22;51849;47.476;8.084;2022-09-09T04:18:38;14.20;92.20
65179;DHT22;51849;47.476;8.084;2022-09-09T04:21:04;14.20;92.70
65179;DHT22;51849;47.476;8.084;2022-09-09T04:23:31;14.30;93.10
65179;DHT22;51849;47.476;8.084;2022-09-09T04:25:59;14.30;92.30
65179;DHT22;51849;47.476;8.084;2022-09-09T04:28:30;14.20;91.80
65179;DHT22;51849;47.476;8.084;2022-09-09T04:31:09;14.20;91.70
65179;DHT22;51849;47.476;8.084;2022-09-09T04:33:43;14.20;91.60
65179;DHT22;51849;47.476;8.084;2022-09-09T04:36:11;14.10;91.90
65179;DHT22;51849;47.476;8.084;2022-09-09T04:38:41;14.20;92.10
65179;DHT22;51849;47.476;8.084;2022-09-09T04:41:15;14.10;92.30
65179;DHT22;51849;47.476;8.084;2022-09-09T04:43:45;14.20;92.50
65179;DHT22;51849;47.476;8.084;2022-09-09T04:46:11;14.20;92.50
65179;DHT22;51849;47.476;8.084;2022-09-09T04:48:37;14.20;92.40
65179;DHT22;51849;47.476;8.084;2022-09-09T04:51:06;14.20;92.20
65179;DHT22;51849;47.476;8.084;2022-09-09T04:53:35;14.20;92.10
65179;DHT22;51849;47.476;8.084;2022-09-09T04:56:02;14.20;92.10
65179;DHT22;51849;47.476;8.084;2022-09-09T04:58:31;14.20;92.10
65179;DHT22;51849;47.476;8.084;2022-09-09T05:01:07;14.20;92.00
65179;DHT22;51849;47.476;8.084;2022-09-09T05:03:37;14.20;91.90
65179;DHT22;51849;47.476;8.084;2022-09-09T05:06:04;14.20;91.90
65179;DHT22;51849;47.476;8.084;2022-09-09T05:08:50;14.20;91.90
65179;DHT22;51849;47.476;8.084;2022-09-09T05:11:19;14.20;92.00
65179;DHT22;51849;47.476;8.084;2022-09-09T05:13:47;14.20;92.00
65179;DHT22;51849;47.476;8.084;2022-09-09T05:16:13;14.20;92.00
65179;DHT22;51849;47.476;8.084;2022-09-09T05:18:40;14.20;91.90
65179;DHT22;51849;47.476;8.084;2022-09-09T05:21:08;14.20;92.00
65179;DHT22;51849;47.476;8.084;2022-09-09T05:23:35;14.20;92.10
65179;DHT22;51849;47.476;8.084;2022-09-09T05:26:03;14.20;92.00
65179;DHT22;51849;47.476;8.084;2022-09-09T05:28:30;14.20;91.80
65179;DHT22;51849;47.476;8.084;2022-09-09T05:30:56;14.30;91.60
65179;DHT22;51849;47.476;8.084;2022-09-09T05:33:29;14.30;91.50
65179;DHT22;51849;47.476;8.084;2022-09-09T05:35:58;14.30;91.50
65179;DHT22;51849;47.476;8.084;2022-09-09T05:38:25;14.30;91.50
65179;DHT22;51849;47.476;8.084;2022-09-09T05:40:51;14.40;91.30
65179;DHT22;51849;47.476;8.084;2022-09-09T05:43:18;14.40;91.50
65179;DHT22;51849;47.476;8.084;2022-09-09T05:45:47;14.40;91.80
65179;DHT22;51849;47.476;8.084;2022-09-09T05:48:14;14.50;91.60
65179;DHT22;51849;47.476;8.084;2022-09-09T05:50:41;14.50;91.50
65179;DHT22;51849;47.476;8.084;2022-09-09T05:53:09;14.60;91.40
65179;DHT22;51849;47.476;8.084;2022-09-09T05:55:38;14.60;91.30
65179;DHT22;51849;47.476;8.084;2022-09-09T05:58:04;14.60;91.00
65179;DHT22;51849;47.476;8.084;2022-09-09T06:00:32;14.70;91.00
65179;DHT22;51849;47.476;8.084;2022-09-09T06:03:01;14.80;90.80
65179;DHT22;51849;47.476;8.084;2022-09-09T06:05:27;14.90;90.60
65179;DHT22;51849;47.476;8.084;2022-09-09T06:10:39;15.30;90.30
65179;DHT22;51849;47.476;8.084;2022-09-09T06:13:04;15.50;90.10
65179;DHT22;51849;47.476;8.084;2022-09-09T06:15:30;15.60;89.00
65179;DHT22;51849;47.476;8.084;2022-09-09T06:17:57;15.50;88.30
65179;DHT22;51849;47.476;8.084;2022-09-09T06:20:25;15.40;87.70
65179;DHT22;51849;47.476;8.084;2022-09-09T06:22:51;15.30;88.30
65179;DHT22;51849;47.476;8.084;2022-09-09T06:25:20;15.30;88.70
65179;DHT22;51849;47.476;8.084;2022-09-09T06:27:48;15.30;89.10
65179;DHT22;51849;47.476;8.084;2022-09-09T06:30:16;15.30;89.00
65179;DHT22;51849;47.476;8.084;2022-09-09T06:32:42;15.30;88.60
65179;DHT22;51849;47.476;8.084;2022-09-09T06:35:11;15.30;88.90
65179;DHT22;51849;47.476;8.084;2022-09-09T06:37:40;15.40;89.10
65179;DHT22;51849;47.476;8.084;2022-09-09T06:40:10;15.50;88.80
65179;DHT22;51849;47.476;8.084;2022-09-09T06:42:36;15.60;88.30
65179;DHT22;51849;47.476;8.084;2022-09-09T06:45:05;15.70;87.60
65179;DHT22;51849;47.476;8.084;2022-09-09T06:47:35;15.80;87.50
65179;DHT22;51849;47.476;8.084;2022-09-09T06:50:01;15.80;86.60
65179;DHT22;51849;47.476;8.084;2022-09-09T06:52:30;15.80;86.50
65179;DHT22;51849;47.476;8.084;2022-09-09T06:54:55;15.90;86.80
65179;DHT22;51849;47.476;8.084;2022-09-09T06:57:23;16.00;86.40
65179;DHT22;51849;47.476;8.084;2022-09-09T06:59:49;16.00;86.60
65179;DHT22;51849;47.476;8.084;2022-09-09T07:02:15;16.10;86.70
65179;DHT22;51849;47.476;8.084;2022-09-09T07:04:40;16.30;85.80
65179;DHT22;51849;47.476;8.084;2022-09-09T07:07:06;16.40;84.80
65179;DHT22;51849;47.476;8.084;2022-09-09T07:09:33;16.60;83.40
65179;DHT22;51849;47.476;8.084;2022-09-09T07:12:02;16.80;82.40
65179;DHT22;51849;47.476;8.084;2022-09-09T07:14:45;16.90;81.70
65179;DHT22;51849;47.476;8.084;2022-09-09T07:17:11;17.10;79.90
65179;DHT22;51849;47.476;8.084;2022-09-09T07:19:39;17.20;79.30
65179;DHT22;51849;47.476;8.084;2022-09-09T07:22:05;17.30;79.50
65179;DHT22;51849;47.476;8.084;2022-09-09T07:24:33;17.30;79.50
65179;DHT22;51849;47.476;8.084;2022-09-09T07:26:59;17.40;78.40
65179;DHT22;51849;47.476;8.084;2022-09-09T07:29:24;17.50;78.50
65179;DHT22;51849;47.476;8.084;2022-09-09T07:31:56;17.70;77.30
65179;DHT22;51849;47.476;8.084;2022-09-09T07:34:24;17.70;76.40
65179;DHT22;51849;47.476;8.084;2022-09-09T07:36:49;17.70;75.70
65179;DHT22;51849;47.476;8.084;2022-09-09T07:39:16;17.80;75.80
65179;DHT22;51849;47.476;8.084;2022-09-09T07:41:44;17.90;73.90
65179;DHT22;51849;47.476;8.084;2022-09-09T07:44:12;18.00;73.90
65179;DHT22;51849;47.476;8.084;2022-09-09T07:46:43;18.00;73.70
65179;DHT22;51849;47.476;8.084;2022-09-09T07:49:30;18.20;75.00
65179;DHT22;51849;47.476;8.084;2022-09-09T07:51:57;18.50;73.10
65179;DHT22;51849;47.476;8.084;2022-09-09T07:54:22;18.80;72.60
65179;DHT22;51849;47.476;8.084;2022-09-09T07:56:51;18.80;71.90
65179;DHT22;51849;47.476;8.084;2022-09-09T07:59:17;18.60;72.70
65179;DHT22;51849;47.476;8.084;2022-09-09T08:01:45;18.60;73.80
65179;DHT22;51849;47.476;8.084;2022-09-09T08:04:13;18.70;73.30
65179;DHT22;51849;47.476;8.084;2022-09-09T08:06:47;18.80;72.60
65179;DHT22;51849;47.476;8.084;2022-09-09T08:09:24;18.90;72.60
65179;DHT22;51849;47.476;8.084;2022-09-09T08:11:55;19.00;71.60
65179;DHT22;51849;47.476;8.084;2022-09-09T08:14:22;18.90;70.10
65179;DHT22;51849;47.476;8.084;2022-09-09T08:16:48;18.70;70.40
65179;DHT22;51849;47.476;8.084;2022-09-09T08:19:16;18.60;69.60
65179;DHT22;51849;47.476;8.084;2022-09-09T08:21:42;18.60;68.10
65179;DHT22;51849;47.476;8.084;2022-09-09T08:24:10;18.60;66.60
65179;DHT22;51849;47.476;8.084;2022-09-09T08:26:38;18.60;67.00
65179;DHT22;51849;47.476;8.084;2022-09-09T08:29:05;18.70;67.40
65179;DHT22;51849;47.476;8.084;2022-09-09T08:31:39;18.70;65.40
65179;DHT22;51849;47.476;8.084;2022-09-09T08:34:24;18.50;66.60
65179;DHT22;51849;47.476;8.084;2022-09-09T08:36:52;18.50;67.80
65179;DHT22;51849;47.476;8.084;2022-09-09T08:39:20;18.30;69.00
65179;DHT22;51849;47.476;8.084;2022-09-09T08:42:00;18.40;69.70
65179;DHT22;51849;47.476;8.084;2022-09-09T08:50:28;18.50;68.70
65179;DHT22;51849;47.476;8.084;2022-09-09T08:56:08;18.30;68.00
65179;DHT22;51849;47.476;8.084;2022-09-09T08:58:53;18.20;69.50
65179;DHT22;51849;47.476;8.084;2022-09-09T09:01:32;18.20;70.80
65179;DHT22;51849;47.476;8.084;2022-09-09T09:04:13;18.20;71.10
65179;DHT22;51849;47.476;8.084;2022-09-09T09:12:42;18.20;72.60
65179;DHT22;51849;47.476;8.084;2022-09-09T09:15:27;18.10;72.10
65179;DHT22;51849;47.476;8.084;2022-09-09T09:18:02;18.20;73.50
65179;DHT22;51849;47.476;8.084;2022-09-09T09:20:34;18.20;73.50
65179;DHT22;51849;47.476;8.084;2022-09-09T09:23:21;18.30;72.70
65179;DHT22;51849;47.476;8.084;2022-09-09T09:25:55;18.20;70.60
65179;DHT22;51849;47.476;8.084;2022-09-09T09:28:31;18.20;72.30
65179;DHT22;51849;47.476;8.084;2022-09-09T09:31:10;18.10;71.80
65179;DHT22;51849;47.476;8.084;2022-09-09T09:33:44;18.10;69.80
65179;DHT22;51849;47.476;8.084;2022-09-09T09:36:12;18.00;71.10
65179;DHT22;51849;47.476;8.084;2022-09-09T09:38:51;18.00;70.40
65179;DHT22;51849;47.476;8.084;2022-09-09T09:41:36;18.10;70.70
65179;DHT22;51849;47.476;8.084;2022-09-09T09:44:04;18.20;68.60
65179;DHT22;51849;47.476;8.084;2022-09-09T09:46:35;18.20;65.40
65179;DHT22;51849;47.476;8.084;2022-09-09T09:49:03;18.20;66.50
65179;DHT22;51849;47.476;8.084;2022-09-09T09:51:34;18.10;65.20
65179;DHT22;51849;47.476;8.084;2022-09-09T09:56:40;18.10;64.60
65179;DHT22;51849;47.476;8.084;2022-09-09T09:59:18;18.20;63.40
65179;DHT22;51849;47.476;8.084;2022-09-09T10:04:42;18.60;61.80
65179;DHT22;51849;47.476;8.084;2022-09-09T10:07:17;18.90;60.70
65179;DHT22;51849;47.476;8.084;2022-09-09T10:09:52;19.20;58.80
65179;DHT22;51849;47.476;8.084;2022-09-09T10:17:41;19.60;54.60
65179;DHT22;51849;47.476;8.084;2022-09-09T10:20:31;19.70;56.00
65179;DHT22;51849;47.476;8.084;2022-09-09T10:29:07;20.20;54.40
65179;DHT22;51849;47.476;8.084;2022-09-09T10:37:37;20.50;53.30
65179;DHT22;51849;47.476;8.084;2022-09-09T10:43:04;20.70;52.80
65179;DHT22;51849;47.476;8.084;2022-09-09T10:49:17;20.80;52.00
65179;DHT22;51849;47.476;8.084;2022-09-09T10:57:13;20.90;51.10
65179;DHT22;51849;47.476;8.084;2022-09-09T11:00:03;21.00;51.60
65179;DHT22;51849;47.476;8.084;2022-09-09T11:02:32;21.20;51.80
65179;DHT22;51849;47.476;8.084;2022-09-09T11:05:08;21.20;50.10
65179;DHT22;51849;47.476;8.084;2022-09-09T11:07:52;21.40;51.70
65179;DHT22;51849;47.476;8.084;2022-09-09T11:13:10;21.80;51.10
65179;DHT22;51849;47.476;8.084;2022-09-09T11:16:04;22.00;50.30
65179;DHT22;51849;47.476;8.084;2022-09-09T11:18:50;21.90;50.20
65179;DHT22;51849;47.476;8.084;2022-09-09T11:21:26;21.90;49.20
65179;DHT22;51849;47.476;8.084;2022-09-09T11:24:08;21.90;47.80
65179;DHT22;51849;47.476;8.084;2022-09-09T11:27:14;21.80;47.50
65179;DHT22;51849;47.476;8.084;2022-09-09T11:36:16;21.60;48.60
65179;DHT22;51849;47.476;8.084;2022-09-09T11:38:50;21.60;48.70
65179;DHT22;51849;47.476;8.084;2022-09-09T11:41:21;21.70;48.40
65179;DHT22;51849;47.476;8.084;2022-09-09T11:43:53;21.80;48.90
65179;DHT22;51849;47.476;8.084;2022-09-09T11:46:33;21.90;48.00
65179;DHT22;51849;47.476;8.084;2022-09-09T11:49:05;22.00;47.60
65179;DHT22;51849;47.476;8.084;2022-09-09T11:51:33;22.00;46.80
65179;DHT22;51849;47.476;8.084;2022-09-09T11:54:01;22.20;46.40
65179;DHT22;51849;47.476;8.084;2022-09-09T11:56:48;22.30;44.40
65179;DHT22;51849;47.476;8.084;2022-09-09T12:02:14;22.60;44.30
65179;DHT22;51849;47.476;8.084;2022-09-09T12:05:10;22.60;43.00
65179;DHT22;51849;47.476;8.084;2022-09-09T12:07:49;22.80;44.70
65179;DHT22;51849;47.476;8.084;2022-09-09T12:12:51;22.90;42.70
65179;DHT22;51849;47.476;8.084;2022-09-09T12:15:19;22.80;41.80
65179;DHT22;51849;47.476;8.084;2022-09-09T12:17:55;22.90;42.00
65179;DHT22;51849;47.476;8.084;2022-09-09T12:26:15;23.00;41.90
65179;DHT22;51849;47.476;8.084;2022-09-09T12:28:53;22.80;40.50
65179;DHT22;51849;47.476;8.084;2022-09-09T12:31:44;22.70;41.50
65179;DHT22;51849;47.476;8.084;2022-09-09T12:34:18;22.60;40.70
65179;DHT22;51849;47.476;8.084;2022-09-09T12:37:02;22.50;41.10
65179;DHT22;51849;47.476;8.084;2022-09-09T12:39:39;22.60;41.80
65179;DHT22;51849;47.476;8.084;2022-09-09T12:42:18;22.50;41.20
65179;DHT22;51849;47.476;8.084;2022-09-09T12:45:02;22.30;41.00
65179;DHT22;51849;47.476;8.084;2022-09-09T12:47:43;22.20;42.40
65179;DHT22;51849;47.476;8.084;2022-09-09T12:51:15;22.30;45.20
65179;DHT22;51849;47.476;8.084;2022-09-09T12:53:22;22.20;45.70
65179;DHT22;51849;47.476;8.084;2022-09-09T12:56:19;22.30;46.20
65179;DHT22;51849;47.476;8.084;2022-09-09T12:58:48;22.60;46.80
65179;DHT22;51849;47.476;8.084;2022-09-09T13:03:54;22.70;44.80
65179;DHT22;51849;47.476;8.084;2022-09-09T13:06:27;22.70;43.70
65179;DHT22;51849;47.476;8.084;2022-09-09T13:08:55;22.60;43.20
65179;DHT22;51849;47.476;8.084;2022-09-09T13:11:43;22.50;43.90
65179;DHT22;51849;47.476;8.084;2022-09-09T13:14:17;22.50;44.80
65179;DHT22;51849;47.476;8.084;2022-09-09T13:16:57;22.50;45.10
65179;DHT22;51849;47.476;8.084;2022-09-09T13:19:26;22.40;45.60
65179;DHT22;51849;47.476;8.084;2022-09-09T13:21:59;22.50;46.70
65179;DHT22;51849;47.476;8.084;2022-09-09T13:24:37;22.40;45.70
65179;DHT22;51849;47.476;8.084;2022-09-09T13:29:54;22.00;47.40
65179;DHT22;51849;47.476;8.084;2022-09-09T13:32:22;21.80;47.90
65179;DHT22;51849;47.476;8.084;2022-09-09T13:35:23;21.60;49.10
65179;DHT22;51849;47.476;8.084;2022-09-09T13:37:50;21.30;49.00
65179;DHT22;51849;47.476;8.084;2022-09-09T13:40:22;21.00;49.70
65179;DHT22;51849;47.476;8.084;2022-09-09T13:42:52;20.90;51.00
65179;DHT22;51849;47.476;8.084;2022-09-09T13:45:26;20.70;51.50
65179;DHT22;51849;47.476;8.084;2022-09-09T13:48:08;20.70;52.40
65179;DHT22;51849;47.476;8.084;2022-09-09T13:50:53;20.80;54.10
65179;DHT22;51849;47.476;8.084;2022-09-09T13:53:29;21.00;53.30
65179;DHT22;51849;47.476;8.084;2022-09-09T13:55:55;21.20;52.70
65179;DHT22;51849;47.476;8.084;2022-09-09T13:58:44;21.40;52.30
65179;DHT22;51849;47.476;8.084;2022-09-09T14:01:12;21.70;51.40
65179;DHT22;51849;47.476;8.084;2022-09-09T14:03:38;21.80;49.90
65179;DHT22;51849;47.476;8.084;2022-09-09T14:06:03;21.90;50.20
65179;DHT22;51849;47.476;8.084;2022-09-09T14:08:29;21.90;50.40
65179;DHT22;51849;47.476;8.084;2022-09-09T14:11:05;21.90;50.60
65179;DHT22;51849;47.476;8.084;2022-09-09T14:13:34;21.90;50.40
65179;DHT22;51849;47.476;8.084;2022-09-09T14:15:59;21.90;51.70
65179;DHT22;51849;47.476;8.084;2022-09-09T14:18:25;21.90;47.60
65179;DHT22;51849;47.476;8.084;2022-09-09T14:20:51;21.90;47.50
65179;DHT22;51849;47.476;8.084;2022-09-09T14:23:16;21.80;48.10
65179;DHT22;51849;47.476;8.084;2022-09-09T14:25:45;21.90;48.50
65179;DHT22;51849;47.476;8.084;2022-09-09T14:28:12;21.90;47.10
65179;DHT22;51849;47.476;8.084;2022-09-09T14:30:39;21.90;45.70
65179;DHT22;51849;47.476;8.084;2022-09-09T14:33:07;21.80;45.90
65179;DHT22;51849;47.476;8.084;2022-09-09T14:35:40;21.90;47.60
65179;DHT22;51849;47.476;8.084;2022-09-09T14:38:06;21.90;47.40
65179;DHT22;51849;47.476;8.084;2022-09-09T14:40:36;21.70;46.70
65179;DHT22;51849;47.476;8.084;2022-09-09T14:43:03;21.50;46.80
65179;DHT22;51849;47.476;8.084;2022-09-09T14:45:30;21.40;47.10
65179;DHT22;51849;47.476;8.084;2022-09-09T14:47:56;21.30;46.80
65179;DHT22;51849;47.476;8.084;2022-09-09T14:50:23;21.40;46.60
65179;DHT22;51849;47.476;8.084;2022-09-09T14:52:48;21.40;46.90
65179;DHT22;51849;47.476;8.084;2022-09-09T14:55:17;21.50;46.70
65179;DHT22;51849;47.476;8.084;2022-09-09T14:57:46;21.40;46.20
65179;DHT22;51849;47.476;8.084;2022-09-09T15:00:14;21.30;46.40
65179;DHT22;51849;47.476;8.084;2022-09-09T15:02:41;21.20;45.80
65179;DHT22;51849;47.476;8.084;2022-09-09T15:05:07;21.40;47.00
65179;DHT22;51849;47.476;8.084;2022-09-09T15:07:36;21.60;46.00
65179;DHT22;51849;47.476;8.084;2022-09-09T15:10:08;21.60;46.60
65179;DHT22;51849;47.476;8.084;2022-09-09T15:12:40;21.70;47.40
65179;DHT22;51849;47.476;8.084;2022-09-09T15:15:07;21.70;46.50
65179;DHT22;51849;47.476;8.084;2022-09-09T15:17:33;21.60;48.20
65179;DHT22;51849;47.476;8.084;2022-09-09T15:20:03;21.60;48.40
65179;DHT22;51849;47.476;8.084;2022-09-09T15:22:31;21.60;46.50
65179;DHT22;51849;47.476;8.084;2022-09-09T15:24:57;21.50;47.20
65179;DHT22;51849;47.476;8.084;2022-09-09T15:27:27;21.30;47.90
65179;DHT22;51849;47.476;8.084;2022-09-09T15:29:53;21.20;47.60
65179;DHT22;51849;47.476;8.084;2022-09-09T15:32:21;21.00;48.50
65179;DHT22;51849;47.476;8.084;2022-09-09T15:34:47;21.00;48.50
65179;DHT22;51849;47.476;8.084;2022-09-09T15:37:13;21.10;48.80
65179;DHT22;51849;47.476;8.084;2022-09-09T15:39:39;21.20;48.70
65179;DHT22;51849;47.476;8.084;2022-09-09T15:42:10;21.10;47.80
65179;DHT22;51849;47.476;8.084;2022-09-09T15:45:19;21.20;48.50
65179;DHT22;51849;47.476;8.084;2022-09-09T15:47:30;21.30;49.00
65179;DHT22;51849;47.476;8.084;2022-09-09T15:49:56;21.30;50.20
65179;DHT22;51849;47.476;8.084;2022-09-09T15:52:21;21.20;49.50
65179;DHT22;51849;47.476;8.084;2022-09-09T15:54:47;21.20;48.30
65179;DHT22;51849;47.476;8.084;2022-09-09T15:57:18;21.30;48.20
65179;DHT22;51849;47.476;8.084;2022-09-09T15:59:47;21.20;47.90
65179;DHT22;51849;47.476;8.084;2022-09-09T16:02:13;21.10;47.90
65179;DHT22;51849;47.476;8.084;2022-09-09T16:04:39;21.00;48.50
65179;DHT22;51849;47.476;8.084;2022-09-09T16:07:07;20.90;49.10
65179;DHT22;51849;47.476;8.084;2022-09-09T16:09:33;20.80;49.10
65179;DHT22;51849;47.476;8.084;2022-09-09T16:12:02;20.80;48.60
65179;DHT22;51849;47.476;8.084;2022-09-09T16:14:32;20.60;48.40
65179;DHT22;51849;47.476;8.084;2022-09-09T16:17:02;20.60;48.80
65179;DHT22;51849;47.476;8.084;2022-09-09T16:19:29;20.50;48.80
65179;DHT22;51849;47.476;8.084;2022-09-09T16:21:54;20.40;48.60
65179;DHT22;51849;47.476;8.084;2022-09-09T16:24:20;20.30;49.00
65179;DHT22;51849;47.476;8.084;2022-09-09T16:26:47;20.30;48.40
65179;DHT22;51849;47.476;8.084;2022-09-09T16:29:15;20.20;48.20
65179;DHT22;51849;47.476;8.084;2022-09-09T16:31:46;20.10;48.50
65179;DHT22;51849;47.476;8.084;2022-09-09T16:34:15;20.00;48.70
65179;DHT22;51849;47.476;8.084;2022-09-09T16:36:47;19.90;47.80
65179;DHT22;51849;47.476;8.084;2022-09-09T16:39:15;19.80;49.90
65179;DHT22;51849;47.476;8.084;2022-09-09T16:41:46;19.80;50.80
65179;DHT22;51849;47.476;8.084;2022-09-09T16:44:18;19.50;51.60
65179;DHT22;51849;47.476;8.084;2022-09-09T16:46:44;19.20;52.50
65179;DHT22;51849;47.476;8.084;2022-09-09T16:49:13;19.10;54.50
65179;DHT22;51849;47.476;8.084;2022-09-09T16:51:49;18.90;56.40
65179;DHT22;51849;47.476;8.084;2022-09-09T16:54:21;18.70;55.40
65179;DHT22;51849;47.476;8.084;2022-09-09T16:56:52;18.30;57.40
65179;DHT22;51849;47.476;8.084;2022-09-09T16:59:23;18.00;59.20
65179;DHT22;51849;47.476;8.084;2022-09-09T17:01:50;17.70;59.20
65179;DHT22;51849;47.476;8.084;2022-09-09T17:04:25;17.40;59.30
65179;DHT22;51849;47.476;8.084;2022-09-09T17:06:57;17.30;59.90
65179;DHT22;51849;47.476;8.084;2022-09-09T17:09:25;17.40;60.00
65179;DHT22;51849;47.476;8.084;2022-09-09T17:11:57;17.30;60.00
65179;DHT22;51849;47.476;8.084;2022-09-09T17:14:22;17.30;59.50
65179;DHT22;51849;47.476;8.084;2022-09-09T17:16:49;17.40;57.50
65179;DHT22;51849;47.476;8.084;2022-09-09T17:19:15;17.40;57.50
65179;DHT22;51849;47.476;8.084;2022-09-09T17:21:44;17.40;57.70
65179;DHT22;51849;47.476;8.084;2022-09-09T17:24:12;17.40;56.20
65179;DHT22;51849;47.476;8.084;2022-09-09T17:26:38;17.40;56.90
65179;DHT22;51849;47.476;8.084;2022-09-09T17:29:04;17.40;58.00
65179;DHT22;51849;47.476;8.084;2022-09-09T17:31:31;17.40;58.80
65179;DHT22;51849;47.476;8.084;2022-09-09T17:33:58;17.50;59.30
65179;DHT22;51849;47.476;8.084;2022-09-09T17:36:32;17.50;59.30
65179;DHT22;51849;47.476;8.084;2022-09-09T17:39:06;17.40;59.70
65179;DHT22;51849;47.476;8.084;2022-09-09T17:41:37;17.40;58.40
65179;DHT22;51849;47.476;8.084;2022-09-09T17:44:07;17.40;58.80
65179;DHT22;51849;47.476;8.084;2022-09-09T17:46:38;17.40;59.90
65179;DHT22;51849;47.476;8.084;2022-09-09T17:49:09;17.30;58.10
65179;DHT22;51849;47.476;8.084;2022-09-09T17:51:37;17.30;58.40
65179;DHT22;51849;47.476;8.084;2022-09-09T17:54:16;17.20;58.10
65179;DHT22;51849;47.476;8.084;2022-09-09T17:56:43;17.20;57.90
65179;DHT22;51849;47.476;8.084;2022-09-09T17:59:13;17.20;58.10
65179;DHT22;51849;47.476;8.084;2022-09-09T18:01:47;17.20;58.60
65179;DHT22;51849;47.476;8.084;2022-09-09T18:04:15;17.30;58.30
65179;DHT22;51849;47.476;8.084;2022-09-09T18:06:43;17.20;57.90
65179;DHT22;51849;47.476;8.084;2022-09-09T18:09:11;17.30;58.60
65179;DHT22;51849;47.476;8.084;2022-09-09T18:11:49;17.30;58.90